Terminal Aerodrome Forecast
Issued by NWS

Home | Current Version | Previous Version | Text Only | Print | Product List | Glossary On
Versions: 1 2 3 4 5 6 7 8 9 10 11 12 13 14 15 16 17 18 19 20 21 22 23 24 25 26 27 28 29 30 31 32 33 34 35
000
FTPA31 PHFO 051735
TAFSTU
TAF
NSTU 051735Z 0518/0618 VRB05KT P6SM VCSH SCT020 BKN040 OVC120
      TEMPO 0518/0522 5SM TSRA SCT015CB BKN035 OVC080=

USA.gov is the U.S. government's official web portal to all federal, state and local government web resources and services.